Sterling, Michigan
Current Conditions -  °F | °C
As of 12:15 AM on Saturday 29 Nov 2014 (Local Time) from KIKW Reporting Station
Overcast Overcast  
Wind Chill: 20°   Ceiling: 3200
Heat Index: 27°   Visibility: 7mi
Dew Point: 23°   Wind: 6mph
Humidity: 86%   Direction: 140°SE
Pressure: 30.03"   Gusts: NA
Location:  44.03°N, 84.02°W
Report Text: KIKW 290515Z AUTO 14005KT 7SM BKN032 OVC043 M03/M05 A3003 RMK AO2 T10301051
Loading
Personal Weather Stations






























Interactive Weather Map New forecast layout! Learn more

10-Day Weather Forecast

Advertisements
Track Severe Weather on mobile